Time;durP1;ratioP1;P1;durP2;ratioP2;P2;SDS_P1;SDS_P2;PMS_P1;PMS_P2;Temp;Humidity;BMP_temperature;BMP_pressure;BME280_temperature;BME280_humidity;BME280_pressure;Samples;Min_cycle;Max_cycle;Signal;HPM_P1;HPM_P2
2022/06/30 00:00:08;;;;;;;2.20;1.27;;;21.00;65.50;;;;;;4999737;28;20494;-86
2022/06/30 00:02:38;;;;;;;2.30;1.35;;;21.00;65.40;;;;;;4979582;28;20046;-86
2022/06/30 00:05:06;;;;;;;2.42;1.58;;;21.00;65.30;;;;;;4995874;28;20046;-87
2022/06/30 00:07:33;;;;;;;2.67;1.75;;;21.00;65.30;;;;;;4973188;28;20047;-87
2022/06/30 00:10:01;;;;;;;2.40;1.50;;;21.10;65.40;;;;;;4994165;28;20058;-87
2022/06/30 00:12:28;;;;;;;3.25;1.85;;;21.00;65.30;;;;;;5001120;28;20059;-87
2022/06/30 00:14:55;;;;;;;2.58;1.73;;;21.00;65.40;;;;;;4987700;28;20046;-86
2022/06/30 00:17:23;;;;;;;2.25;1.25;;;21.00;65.40;;;;;;4994796;28;20046;-87
2022/06/30 00:19:50;;;;;;;1.88;1.30;;;21.00;65.50;;;;;;5000570;28;20150;-87
2022/06/30 00:22:17;;;;;;;2.53;1.42;;;21.10;66.10;;;;;;4985101;28;20046;-87
2022/06/30 00:24:44;;;;;;;2.85;1.65;;;21.10;65.50;;;;;;5003711;28;20490;-86
2022/06/30 00:27:11;;;;;;;2.88;1.63;;;21.10;65.60;;;;;;4980816;28;20130;-87
2022/06/30 00:29:39;;;;;;;3.10;1.38;;;21.10;65.60;;;;;;4976636;28;20042;-87
2022/06/30 00:32:07;;;;;;;2.55;1.65;;;21.00;65.60;;;;;;4976469;28;20092;-86
2022/06/30 00:34:34;;;;;;;2.42;1.42;;;21.00;65.70;;;;;;4960391;28;20058;-87
2022/06/30 00:37:01;;;;;;;2.35;1.58;;;21.00;65.80;;;;;;5008664;28;20065;-87
2022/06/30 00:39:29;;;;;;;2.80;1.70;;;21.00;65.80;;;;;;4958617;28;20479;-87
2022/06/30 00:41:56;;;;;;;2.83;1.75;;;21.00;65.80;;;;;;5008150;28;20038;-87
2022/06/30 00:44:23;;;;;;;2.70;1.60;;;21.00;65.80;;;;;;4988877;28;20057;-87
2022/06/30 00:46:51;;;;;;;2.60;1.75;;;21.00;65.90;;;;;;4984276;28;20074;-86
2022/06/30 00:49:19;;;;;;;3.00;1.95;;;21.00;65.90;;;;;;4983613;28;20054;-87
2022/06/30 00:51:46;;;;;;;2.83;1.92;;;21.00;66.00;;;;;;4986219;28;20105;-86
2022/06/30 00:54:15;;;;;;;2.92;2.00;;;21.00;66.00;;;;;;4956802;28;20425;-87
2022/06/30 00:56:45;;;;;;;2.60;1.98;;;21.00;66.10;;;;;;4996924;28;20108;-87
2022/06/30 00:59:15;;;;;;;3.03;1.92;;;21.00;66.10;;;;;;4991721;28;20043;-87
2022/06/30 01:01:45;;;;;;;3.03;1.92;;;21.00;66.10;;;;;;4989201;28;20074;-87
2022/06/30 01:04:15;;;;;;;3.30;1.67;;;21.00;66.10;;;;;;4991607;28;20070;-87
2022/06/30 01:06:44;;;;;;;2.70;1.77;;;21.00;66.20;;;;;;5008240;28;20498;-87
2022/06/30 01:12:41;;;;;;;2.42;1.60;;;20.90;66.30;;;;;;4998320;28;20482;-87
2022/06/30 01:14:49;;;;;;;3.58;1.90;;;20.80;66.80;;;;;;4986568;28;20051;-87
2022/06/30 01:17:16;;;;;;;2.50;1.70;;;20.70;67.00;;;;;;4978635;28;20132;-86
2022/06/30 01:19:56;;;;;;;3.30;1.70;;;20.70;67.20;;;;;;4989787;28;20398;-87
2022/06/30 01:22:23;;;;;;;3.20;2.10;;;20.60;67.40;;;;;;4988770;28;20132;-87
2022/06/30 01:24:50;;;;;;;3.10;2.20;;;20.50;67.50;;;;;;4966410;28;20391;-87
2022/06/30 01:27:18;;;;;;;2.97;1.90;;;20.50;67.70;;;;;;4990897;28;20073;-87
2022/06/30 01:29:46;;;;;;;3.15;2.00;;;20.50;67.90;;;;;;5000503;28;20057;-87
2022/06/30 01:32:14;;;;;;;3.17;2.08;;;20.40;68.00;;;;;;5005773;28;20077;-87
2022/06/30 01:34:41;;;;;;;3.40;2.50;;;20.40;68.20;;;;;;4995555;28;20057;-87
2022/06/30 01:37:08;;;;;;;3.10;2.03;;;20.30;68.30;;;;;;4965487;28;20050;-87
2022/06/30 01:39:35;;;;;;;2.90;1.73;;;20.30;68.50;;;;;;4994843;28;20089;-87
2022/06/30 01:42:03;;;;;;;3.78;2.55;;;20.30;68.70;;;;;;4990207;28;20057;-86
2022/06/30 01:44:29;;;;;;;3.05;2.25;;;20.20;68.80;;;;;;4981645;28;20065;-87
2022/06/30 01:46:56;;;;;;;2.83;1.75;;;20.20;68.90;;;;;;4961999;28;20108;-87
2022/06/30 01:49:24;;;;;;;3.28;1.98;;;20.10;69.00;;;;;;4996691;28;20137;-87
2022/06/30 01:51:50;;;;;;;4.25;2.20;;;20.10;69.20;;;;;;4976049;28;20568;-87
2022/06/30 01:54:17;;;;;;;3.85;2.45;;;20.10;69.40;;;;;;4987846;28;20065;-87
2022/06/30 01:56:45;;;;;;;3.90;2.10;;;20.00;69.40;;;;;;4988330;28;20053;-87
2022/06/30 01:59:13;;;;;;;4.00;2.22;;;20.00;69.50;;;;;;5003434;28;20046;-87
2022/06/30 02:01:43;;;;;;;3.33;2.10;;;20.00;69.60;;;;;;4981606;28;20182;-87
2022/06/30 02:06:55;;;;;;;3.75;2.35;;;19.90;70.00;;;;;;5003069;28;20472;-87
2022/06/30 02:09:22;;;;;;;3.22;2.00;;;19.80;70.10;;;;;;4994847;28;20085;-86
2022/06/30 02:12:44;;;;;;;4.57;2.58;;;19.80;70.20;;;;;;4983851;28;20462;-87
2022/06/30 02:14:36;;;;;;;3.65;2.30;;;19.80;70.30;;;;;;4994062;28;20054;-87
2022/06/30 02:17:03;;;;;;;3.30;2.05;;;19.80;70.40;;;;;;4997377;28;20069;-87
2022/06/30 02:19:30;;;;;;;3.25;1.85;;;19.80;70.50;;;;;;4995876;28;20053;-87
2022/06/30 02:21:57;;;;;;;3.65;2.22;;;19.80;70.60;;;;;;4972326;28;20061;-87
2022/06/30 02:24:24;;;;;;;4.20;2.60;;;19.80;70.70;;;;;;4994055;28;20046;-86
2022/06/30 02:26:51;;;;;;;6.68;2.22;;;19.80;70.90;;;;;;4977271;28;20050;-86
2022/06/30 02:29:21;;;;;;;4.65;2.30;;;19.70;71.60;;;;;;4961926;28;20049;-85
2022/06/30 02:31:49;;;;;;;3.05;2.13;;;19.70;71.20;;;;;;4992808;28;20541;-86
2022/06/30 02:34:16;;;;;;;2.92;2.13;;;19.70;71.20;;;;;;5009618;28;20564;-87
2022/06/30 02:36:44;;;;;;;3.17;2.42;;;19.70;71.30;;;;;;4995389;28;20087;-86
2022/06/30 02:39:11;;;;;;;3.10;2.42;;;19.60;71.40;;;;;;5003928;28;20038;-86
2022/06/30 02:41:38;;;;;;;3.58;2.60;;;19.60;71.50;;;;;;4978053;28;20506;-85
2022/06/30 02:44:05;;;;;;;2.97;1.90;;;19.60;71.70;;;;;;4989029;28;20491;-86
2022/06/30 02:46:32;;;;;;;3.38;2.35;;;19.60;71.80;;;;;;5008953;28;20490;-86
2022/06/30 02:48:59;;;;;;;3.00;1.88;;;19.50;71.90;;;;;;4992996;28;20042;-86
2022/06/30 02:51:26;;;;;;;3.72;2.42;;;19.50;72.00;;;;;;4986562;28;20077;-87
2022/06/30 02:53:53;;;;;;;4.32;2.92;;;19.40;72.10;;;;;;4998377;28;20088;-88
2022/06/30 02:56:20;;;;;;;3.25;2.25;;;19.50;72.40;;;;;;4986139;28;20188;-87
2022/06/30 02:58:49;;;;;;;4.10;2.70;;;19.40;72.50;;;;;;4980969;28;20042;-87
2022/06/30 03:01:16;;;;;;;3.63;2.40;;;19.40;72.60;;;;;;4980304;28;20046;-87
2022/06/30 03:03:43;;;;;;;3.30;2.15;;;19.30;72.70;;;;;;4977179;28;20054;-87
2022/06/30 03:06:09;;;;;;;3.33;2.75;;;19.30;72.90;;;;;;4985852;28;20100;-80
2022/06/30 03:08:37;;;;;;;4.38;2.88;;;19.30;73.00;;;;;;4991735;28;20056;-80
2022/06/30 03:11:04;;;;;;;3.75;3.00;;;19.30;73.10;;;;;;4995519;28;20050;-80
2022/06/30 03:13:30;;;;;;;4.78;2.90;;;19.30;73.10;;;;;;4959872;28;20082;-79
2022/06/30 03:15:57;;;;;;;4.47;3.08;;;19.40;73.70;;;;;;4977219;28;20100;-80
2022/06/30 03:18:25;;;;;;;4.78;2.92;;;19.40;73.10;;;;;;4972718;28;20561;-80
2022/06/30 03:20:51;;;;;;;5.03;3.38;;;19.40;73.10;;;;;;4991799;28;20070;-80
2022/06/30 03:23:22;;;;;;;4.40;2.80;;;19.40;73.10;;;;;;5008239;28;20039;-80
2022/06/30 03:25:52;;;;;;;4.53;2.80;;;19.40;73.10;;;;;;4982422;28;20049;-80
2022/06/30 03:28:19;;;;;;;3.72;2.60;;;19.40;73.60;;;;;;5003350;28;20490;-80
2022/06/30 03:30:47;;;;;;;4.63;2.70;;;19.40;73.20;;;;;;4983932;28;20138;-79
2022/06/30 03:33:15;;;;;;;4.30;2.30;;;19.30;73.20;;;;;;4992290;28;20052;-80
2022/06/30 03:35:43;;;;;;;3.95;2.63;;;19.30;73.30;;;;;;5001176;28;20053;-79
2022/06/30 03:38:11;;;;;;;3.88;2.53;;;19.30;73.50;;;;;;5004803;28;20052;-79
2022/06/30 03:40:38;;;;;;;5.68;2.92;;;19.20;73.60;;;;;;4990893;28;20042;-79
2022/06/30 03:43:06;;;;;;;3.58;2.38;;;19.20;73.80;;;;;;4997824;28;20050;-79
2022/06/30 03:45:36;;;;;;;3.55;2.63;;;19.20;73.90;;;;;;5007340;28;20038;-79
2022/06/30 03:48:04;;;;;;;3.95;2.78;;;19.20;74.00;;;;;;5007747;28;20149;-78
2022/06/30 03:50:33;;;;;;;3.65;2.60;;;19.20;74.10;;;;;;4994119;28;20061;-79
2022/06/30 03:53:03;;;;;;;4.40;3.15;;;19.20;74.20;;;;;;5006059;28;20061;-79
2022/06/30 03:55:30;;;;;;;3.80;2.72;;;19.10;74.20;;;;;;4994774;28;20108;-79
2022/06/30 03:57:57;;;;;;;5.47;3.17;;;19.10;74.30;;;;;;5001403;28;20042;-80
2022/06/30 04:00:24;;;;;;;5.20;3.25;;;19.20;74.50;;;;;;4996991;28;20043;-79
2022/06/30 04:02:51;;;;;;;3.70;2.67;;;19.10;74.60;;;;;;4994013;28;20069;-80
2022/06/30 04:05:18;;;;;;;3.92;2.92;;;19.20;74.70;;;;;;5007078;28;20039;-79
2022/06/30 04:07:46;;;;;;;5.13;3.08;;;19.20;74.80;;;;;;4991275;28;20125;-80
2022/06/30 04:10:14;;;;;;;3.53;2.65;;;19.20;74.80;;;;;;4993601;28;20206;-79
2022/06/30 04:12:41;;;;;;;4.10;2.90;;;19.20;74.80;;;;;;4987264;28;20050;-80
2022/06/30 04:15:08;;;;;;;5.50;3.33;;;19.20;74.90;;;;;;4996191;28;20042;-79
2022/06/30 04:17:35;;;;;;;5.07;3.08;;;19.20;74.90;;;;;;4987247;28;20058;-80
2022/06/30 04:20:04;;;;;;;4.00;2.95;;;19.20;74.90;;;;;;4972027;28;20464;-80
2022/06/30 04:22:32;;;;;;;4.78;3.40;;;19.30;75.00;;;;;;4972975;28;20102;-80
2022/06/30 04:24:59;;;;;;;3.83;2.70;;;19.30;75.00;;;;;;5000897;28;20141;-80
2022/06/30 04:27:26;;;;;;;5.68;3.90;;;19.30;75.00;;;;;;4993751;28;20053;-79
2022/06/30 04:29:53;;;;;;;5.65;3.47;;;19.40;75.00;;;;;;4978677;28;20111;-80
2022/06/30 04:32:38;;;;;;;5.65;3.42;;;19.40;75.00;;;;;;4990499;28;20121;-80
2022/06/30 04:35:10;;;;;;;5.35;3.42;;;19.40;75.00;;;;;;4987937;28;20439;-79
2022/06/30 04:37:38;;;;;;;4.72;3.22;;;19.60;74.80;;;;;;5013521;28;20046;-80
2022/06/30 04:42:52;;;;;;;4.38;3.42;;;19.70;74.60;;;;;;4999942;28;20105;-80
2022/06/30 04:45:19;;;;;;;5.63;3.78;;;19.70;74.50;;;;;;4975605;28;20034;-80
2022/06/30 04:47:46;;;;;;;4.63;3.63;;;19.80;74.50;;;;;;5012980;28;20461;-80
2022/06/30 04:50:13;;;;;;;4.97;3.67;;;19.80;74.50;;;;;;4987710;28;20050;-80
2022/06/30 04:52:40;;;;;;;4.40;3.10;;;19.80;74.50;;;;;;4998465;28;20046;-80
2022/06/30 04:55:10;;;;;;;4.72;3.60;;;19.90;74.50;;;;;;4978113;28;20065;-80
2022/06/30 04:57:37;;;;;;;4.68;3.42;;;19.90;74.40;;;;;;4972106;28;20092;-80
2022/06/30 05:00:05;;;;;;;5.57;4.30;;;20.00;74.40;;;;;;4998069;28;20509;-80
2022/06/30 05:02:34;;;;;;;5.30;3.85;;;20.00;74.40;;;;;;4993608;28;20552;-80
2022/06/30 05:05:02;;;;;;;4.97;3.70;;;20.10;74.20;;;;;;4997571;28;20390;-79
2022/06/30 05:07:29;;;;;;;5.40;3.70;;;20.20;74.10;;;;;;4994180;28;20565;-80
2022/06/30 05:09:56;;;;;;;6.43;4.13;;;20.20;74.00;;;;;;4982819;28;20057;-80
2022/06/30 05:12:22;;;;;;;5.40;3.88;;;20.30;74.60;;;;;;4971904;28;20120;-80
2022/06/30 05:14:50;;;;;;;5.80;4.47;;;20.40;73.80;;;;;;4994285;28;20080;-79
2022/06/30 05:17:16;;;;;;;4.88;3.75;;;20.40;73.80;;;;;;4982259;28;20078;-79
2022/06/30 05:19:43;;;;;;;5.97;4.50;;;20.50;73.70;;;;;;4974892;28;20129;-79
2022/06/30 05:22:10;;;;;;;5.55;4.38;;;20.60;73.60;;;;;;4980790;28;20077;-80
2022/06/30 05:27:23;;;;;;;6.40;4.43;;;20.70;73.40;;;;;;5009436;28;20081;-79
2022/06/30 05:29:50;;;;;;;5.05;4.03;;;20.80;73.30;;;;;;4997007;28;20124;-79
2022/06/30 05:32:17;;;;;;;5.20;3.90;;;20.90;73.20;;;;;;4976499;28;20072;-79
2022/06/30 05:34:44;;;;;;;5.82;3.90;;;21.00;73.00;;;;;;4978251;28;20046;-79
2022/06/30 05:37:11;;;;;;;5.72;3.60;;;21.10;72.90;;;;;;4993681;28;20081;-80
2022/06/30 05:39:38;;;;;;;6.20;4.40;;;21.20;72.80;;;;;;4996544;28;20601;-80
2022/06/30 05:42:06;;;;;;;5.70;4.03;;;21.30;72.70;;;;;;4995822;28;20101;-80
2022/06/30 05:44:33;;;;;;;6.00;3.90;;;21.40;72.50;;;;;;4993466;28;20058;-80
2022/06/30 05:47:00;;;;;;;5.57;4.35;;;21.50;72.40;;;;;;4980632;28;20483;-80
2022/06/30 05:49:27;;;;;;;5.07;4.18;;;21.60;72.30;;;;;;4996383;28;20058;-79
2022/06/30 05:51:54;;;;;;;7.20;4.05;;;21.70;72.20;;;;;;4993568;28;20088;-80
2022/06/30 05:54:21;;;;;;;5.93;4.40;;;21.80;72.10;;;;;;4961559;28;20537;-79
2022/06/30 05:56:48;;;;;;;6.10;4.00;;;21.90;72.00;;;;;;4994888;28;20388;-79
2022/06/30 05:59:16;;;;;;;5.22;3.80;;;22.00;71.80;;;;;;4991239;28;20047;-79
2022/06/30 06:01:42;;;;;;;5.63;4.13;;;22.10;71.60;;;;;;4999340;28;20470;-79
2022/06/30 06:04:09;;;;;;;6.38;4.30;;;22.20;71.50;;;;;;4961628;28;20138;-80
2022/06/30 06:06:37;;;;;;;5.32;3.72;;;22.30;71.40;;;;;;4978165;28;20042;-85
2022/06/30 06:09:04;;;;;;;7.07;3.97;;;22.40;71.20;;;;;;4995525;28;20042;-85
2022/06/30 06:11:32;;;;;;;4.88;3.88;;;22.50;71.10;;;;;;4982980;28;20502;-84
2022/06/30 06:14:02;;;;;;;5.82;4.20;;;22.60;71.00;;;;;;4990001;28;20062;-84
2022/06/30 06:16:29;;;;;;;6.13;4.38;;;22.70;70.90;;;;;;4978378;28;20121;-84
2022/06/30 06:18:56;;;;;;;8.07;5.38;;;22.80;70.80;;;;;;4992327;28;20402;-86
2022/06/30 06:21:28;;;;;;;6.35;4.53;;;22.80;70.60;;;;;;4985736;28;20049;-86
2022/06/30 06:23:59;;;;;;;8.45;5.72;;;22.90;70.50;;;;;;4993280;28;20047;-85
2022/06/30 06:26:49;;;;;;;6.40;4.72;;;22.90;70.50;;;;;;4977675;28;20100;-85
2022/06/30 06:29:22;;;;;;;6.10;4.65;;;23.00;70.40;;;;;;4978502;28;20069;-83
2022/06/30 06:31:49;;;;;;;6.53;5.43;;;23.00;70.30;;;;;;5016188;28;20375;-83
2022/06/30 06:34:16;;;;;;;6.00;4.50;;;23.10;70.30;;;;;;4988209;28;20042;-83
2022/06/30 06:36:46;;;;;;;5.65;4.82;;;23.20;70.20;;;;;;4999136;28;20113;-84
2022/06/30 06:39:16;;;;;;;4.90;3.58;;;23.30;70.10;;;;;;4998436;28;20052;-81
2022/06/30 06:41:43;;;;;;;5.47;3.92;;;23.30;69.90;;;;;;5008507;28;20569;-84
2022/06/30 06:44:11;;;;;;;6.88;4.35;;;23.40;69.80;;;;;;4999539;28;20497;-83
2022/06/30 06:46:40;;;;;;;7.25;3.90;;;23.50;69.60;;;;;;5000019;28;20073;-82
2022/06/30 06:49:08;;;;;;;5.85;4.38;;;23.60;69.30;;;;;;4999215;28;20042;-83
2022/06/30 06:51:35;;;;;;;7.15;5.20;;;23.70;68.90;;;;;;4991059;28;20047;-83
2022/06/30 06:54:03;;;;;;;5.28;4.20;;;23.70;68.70;;;;;;4991394;28;20056;-83
2022/06/30 06:56:30;;;;;;;5.68;4.53;;;23.70;68.50;;;;;;4991808;28;20064;-82
2022/06/30 06:58:59;;;;;;;6.10;4.55;;;23.70;68.30;;;;;;4985590;28;20069;-84
2022/06/30 07:01:27;;;;;;;5.32;4.55;;;23.80;67.90;;;;;;4981182;28;20057;-79
2022/06/30 07:03:55;;;;;;;6.35;3.40;;;23.90;67.70;;;;;;5008631;28;20073;-85
2022/06/30 07:06:25;;;;;;;5.70;3.97;;;23.90;67.70;;;;;;4992761;28;20052;-84
2022/06/30 07:08:52;;;;;;;5.30;3.67;;;24.00;67.30;;;;;;4982160;28;20581;-83
2022/06/30 07:11:19;;;;;;;4.75;3.85;;;24.00;67.20;;;;;;4975739;28;20495;-83
2022/06/30 07:13:47;;;;;;;6.05;4.13;;;24.10;67.10;;;;;;5001962;28;20039;-83
2022/06/30 07:16:16;;;;;;;6.05;4.43;;;24.20;66.80;;;;;;4992346;28;20046;-80
2022/06/30 07:18:43;;;;;;;7.38;4.07;;;24.20;66.70;;;;;;4991694;28;20042;-79
2022/06/30 07:21:11;;;;;;;4.38;3.25;;;24.20;66.60;;;;;;5002681;28;20084;-83
2022/06/30 07:23:38;;;;;;;5.53;4.05;;;24.30;66.60;;;;;;4991747;28;20546;-82
2022/06/30 07:26:05;;;;;;;6.97;4.97;;;24.40;66.20;;;;;;4992109;28;20047;-82
2022/06/30 07:28:32;;;;;;;7.65;5.85;;;24.40;65.80;;;;;;4982985;28;20038;-83
2022/06/30 07:31:20;;;;;;;7.10;5.03;;;24.40;65.40;;;;;;4992990;28;20050;-84
2022/06/30 07:33:52;;;;;;;8.13;5.47;;;24.40;65.40;;;;;;4984099;28;20108;-84
2022/06/30 07:36:19;;;;;;;7.63;5.63;;;24.50;65.40;;;;;;4993127;28;20148;-84
2022/06/30 07:38:47;;;;;;;7.38;5.63;;;24.50;65.30;;;;;;4975746;28;20038;-83
2022/06/30 07:41:14;;;;;;;8.75;6.38;;;24.60;65.30;;;;;;5007715;28;20070;-83
2022/06/30 07:43:42;;;;;;;7.97;5.82;;;24.60;65.10;;;;;;4976059;28;20046;-85
2022/06/30 07:46:09;;;;;;;7.97;6.57;;;24.60;65.20;;;;;;4989789;28;20034;-85
2022/06/30 07:48:36;;;;;;;7.78;5.80;;;24.60;65.10;;;;;;4994099;28;20047;-83
2022/06/30 07:51:07;;;;;;;9.80;7.13;;;24.70;65.10;;;;;;4996662;28;20125;-86
2022/06/30 07:53:48;;;;;;;9.05;6.88;;;24.80;65.00;;;;;;4988119;28;20042;-84
2022/06/30 07:56:16;;;;;;;8.05;6.38;;;24.80;64.90;;;;;;4988458;28;20063;-84
2022/06/30 07:58:47;;;;;;;8.20;6.55;;;24.90;65.00;;;;;;5004651;28;20058;-84
2022/06/30 08:01:36;;;;;;;8.18;6.50;;;24.90;64.90;;;;;;4983591;28;20465;-84
2022/06/30 08:04:03;;;;;;;8.48;7.45;;;25.00;64.80;;;;;;4979201;28;20049;-84
2022/06/30 08:06:30;;;;;;;11.05;8.82;;;25.00;65.00;;;;;;4995850;28;20042;-84
2022/06/30 08:09:05;;;;;;;7.85;6.68;;;25.00;64.90;;;;;;4988460;28;20062;-83
2022/06/30 08:11:32;;;;;;;8.15;7.30;;;25.00;64.90;;;;;;4993155;28;20076;-83
2022/06/30 08:14:02;;;;;;;9.20;6.97;;;25.00;64.90;;;;;;4981537;28;20043;-83
2022/06/30 08:16:30;;;;;;;10.23;7.95;;;25.10;64.90;;;;;;4982129;28;20049;-83
2022/06/30 08:19:02;;;;;;;11.50;6.77;;;25.20;64.80;;;;;;4991165;28;20050;-83
2022/06/30 08:21:30;;;;;;;9.15;7.03;;;25.20;64.50;;;;;;4990339;28;20372;-83
2022/06/30 08:24:00;;;;;;;8.70;7.55;;;25.20;64.20;;;;;;5003178;28;20486;-81
2022/06/30 08:26:27;;;;;;;11.80;7.60;;;25.10;64.00;;;;;;4997578;28;20050;-82
2022/06/30 08:28:54;;;;;;;9.85;7.55;;;25.10;64.20;;;;;;5004718;28;20046;-89
2022/06/30 08:31:21;;;;;;;9.45;8.38;;;25.10;64.10;;;;;;5004389;28;20065;-90
2022/06/30 08:33:50;;;;;;;7.80;6.05;;;25.00;63.70;;;;;;4995951;28;20061;-89
2022/06/30 08:36:21;;;;;;;7.05;6.03;;;25.00;63.70;;;;;;5009292;28;20080;-89
2022/06/30 08:38:48;;;;;;;11.38;7.43;;;25.10;63.80;;;;;;4986135;28;20046;-90
2022/06/30 08:44:12;;;;;;;7.63;6.40;;;25.10;63.90;;;;;;4997288;28;20081;-88
2022/06/30 08:46:40;;;;;;;8.27;7.03;;;25.20;64.00;;;;;;4997784;28;20137;-90
2022/06/30 08:49:07;;;;;;;9.43;5.63;;;25.30;63.90;;;;;;4983725;28;20054;-90
2022/06/30 08:51:51;;;;;;;6.82;4.70;;;25.30;63.90;;;;;;4998469;28;20057;-91
2022/06/30 08:54:29;;;;;;;7.60;5.47;;;25.40;63.90;;;;;;4991923;28;20046;-90
2022/06/30 08:56:59;;;;;;;;;;;25.60;63.80;;;;;;4984776;28;20100;-86
2022/06/30 08:59:37;;;;;;;7.20;5.18;;;25.50;63.70;;;;;;4999976;28;19928;-85
2022/06/30 09:02:05;;;;;;;;;;;25.50;64.00;;;;;;4996482;28;20038;-88
2022/06/30 09:04:51;;;;;;;6.97;5.32;;;25.50;64.00;;;;;;4979263;28;19929;-88
2022/06/30 09:07:31;;;;;;;5.07;3.60;;;25.60;64.10;;;;;;4984373;28;20092;-87
2022/06/30 09:10:07;;;;;;;5.13;3.33;;;25.70;63.90;;;;;;5001424;28;20069;-87
2022/06/30 09:13:05;;;;;;;4.65;3.25;;;25.80;63.70;;;;;;5011448;28;20061;-87
2022/06/30 09:15:52;;;;;;;4.00;2.50;;;25.90;63.40;;;;;;4995765;28;20050;-84
2022/06/30 09:18:27;;;;;;;6.88;3.42;;;26.00;63.20;;;;;;4998128;28;20247;-85
2022/06/30 09:20:56;;;;;;;4.40;2.05;;;26.10;62.80;;;;;;4998805;28;20046;-86
2022/06/30 09:23:30;;;;;;;3.30;2.30;;;26.10;62.80;;;;;;4994683;28;20122;-85
2022/06/30 09:26:00;;;;;;;4.57;1.95;;;26.30;62.50;;;;;;4995475;28;20054;-85
2022/06/30 09:28:51;;;;;;;2.45;1.35;;;26.40;62.10;;;;;;4997208;28;20473;-86
2022/06/30 09:31:42;;;;;;;5.20;1.92;;;26.50;61.50;;;;;;5010877;28;20050;-87
2022/06/30 09:34:24;;;;;;;;;;;26.50;60.90;;;;;;5000214;28;20140;-86
2022/06/30 09:37:03;;;;;;;6.80;1.30;;;26.60;60.50;;;;;;4980829;28;19921;-88
2022/06/30 09:39:43;;;;;;;2.00;1.02;;;26.60;60.20;;;;;;4995530;28;20042;-88
2022/06/30 09:42:40;;;;;;;4.07;1.92;;;26.80;59.90;;;;;;5002153;28;20050;-85
2022/06/30 09:45:40;;;;;;;3.35;1.70;;;26.90;59.50;;;;;;4990151;28;20042;-86
2022/06/30 09:48:16;;;;;;;3.70;1.52;;;27.00;59.30;;;;;;4978383;28;20141;-85
2022/06/30 09:50:57;;;;;;;5.05;1.85;;;27.00;58.90;;;;;;4986957;28;20060;-87
2022/06/30 09:53:31;;;;;;;3.15;1.25;;;27.00;58.10;;;;;;5000484;28;20118;-85
2022/06/30 09:56:40;;;;;;;3.13;1.25;;;26.90;58.40;;;;;;4963302;28;20126;-86
2022/06/30 09:59:06;;;;;;;2.08;0.85;;;26.80;58.30;;;;;;4990949;28;20347;-82
2022/06/30 10:01:50;;;;;;;2.58;1.25;;;26.90;58.50;;;;;;4993512;28;20050;-82
2022/06/30 10:04:19;;;;;;;3.75;1.38;;;26.90;58.20;;;;;;4990094;28;20455;-79
2022/06/30 10:06:46;;;;;;;2.75;0.77;;;26.90;58.10;;;;;;5006999;28;20045;-79
2022/06/30 10:09:19;;;;;;;4.97;1.00;;;26.90;58.20;;;;;;4968227;28;20073;-80
2022/06/30 10:11:50;;;;;;;2.85;1.20;;;27.10;58.10;;;;;;4988372;28;20535;-80
2022/06/30 10:14:17;;;;;;;1.55;0.68;;;27.10;58.00;;;;;;5009695;28;20062;-82
2022/06/30 10:16:45;;;;;;;0.98;0.65;;;27.10;58.00;;;;;;4992916;28;20050;-80
2022/06/30 10:19:13;;;;;;;1.85;0.57;;;27.30;58.10;;;;;;4977080;28;20050;-79
2022/06/30 10:21:41;;;;;;;2.33;0.70;;;27.40;57.90;;;;;;4993669;28;20153;-76
2022/06/30 10:24:18;;;;;;;2.35;0.77;;;27.50;57.60;;;;;;5010772;28;20081;-76
2022/06/30 10:29:31;;;;;;;1.92;0.70;;;27.60;57.30;;;;;;4990743;28;20114;-78
2022/06/30 10:32:11;;;;;;;1.67;0.80;;;27.80;57.20;;;;;;4976580;28;20046;-77
2022/06/30 10:34:52;;;;;;;2.13;0.82;;;28.00;57.00;;;;;;4989433;28;20050;-77
2022/06/30 10:37:28;;;;;;;3.38;0.90;;;28.00;57.00;;;;;;4989271;28;20042;-77
2022/06/30 10:40:04;;;;;;;1.33;0.60;;;28.00;56.90;;;;;;4988956;28;20097;-79
2022/06/30 10:42:45;;;;;;;2.25;0.90;;;28.10;56.70;;;;;;4984498;28;20050;-87
2022/06/30 10:45:33;;;;;;;2.23;1.00;;;28.20;56.60;;;;;;4990720;28;20047;-89
2022/06/30 10:48:06;;;;;;;2.40;0.70;;;28.30;56.30;;;;;;5002314;28;20297;-90
2022/06/30 10:50:35;;;;;;;2.50;1.00;;;28.30;56.50;;;;;;5009278;28;20053;-87
2022/06/30 10:53:04;;;;;;;1.45;0.63;;;28.30;56.50;;;;;;5012523;28;20133;-85
2022/06/30 10:55:52;;;;;;;2.60;1.15;;;28.40;56.50;;;;;;4997416;28;20050;-87
2022/06/30 10:58:21;;;;;;;3.78;1.70;;;28.50;56.10;;;;;;4997875;28;20050;-86
2022/06/30 11:01:04;;;;;;;5.88;1.17;;;28.50;56.00;;;;;;5013399;28;20045;-86
2022/06/30 11:03:37;;;;;;;3.63;1.30;;;28.50;56.00;;;;;;4999696;28;20038;-88
2022/06/30 11:06:07;;;;;;;2.35;0.98;;;28.50;56.00;;;;;;4998666;28;20045;-84
2022/06/30 11:08:50;;;;;;;3.20;0.85;;;28.50;56.00;;;;;;4977488;28;20157;-86
2022/06/30 11:11:20;;;;;;;1.48;0.88;;;28.50;55.90;;;;;;5002460;28;20046;-87
2022/06/30 11:14:01;;;;;;;3.03;1.15;;;28.50;55.80;;;;;;5001974;28;20057;-87
2022/06/30 11:16:30;;;;;;;4.00;1.30;;;28.50;55.40;;;;;;4985992;28;20214;-86
2022/06/30 11:18:57;;;;;;;2.55;0.80;;;28.40;55.60;;;;;;5014998;28;20086;-86
2022/06/30 11:21:24;;;;;;;2.78;1.00;;;28.60;55.70;;;;;;5003206;28;20136;-86
2022/06/30 11:23:53;;;;;;;3.80;1.13;;;28.70;55.40;;;;;;4993936;28;20042;-86
2022/06/30 11:29:13;;;;;;;2.75;0.77;;;28.80;55.20;;;;;;4992145;28;20049;-87
2022/06/30 11:31:41;;;;;;;3.70;0.85;;;28.90;55.30;;;;;;4992597;28;20042;-85
2022/06/30 11:34:16;;;;;;;2.22;1.00;;;29.00;54.90;;;;;;4997625;28;20051;-85
2022/06/30 11:36:45;;;;;;;2.85;0.90;;;29.00;54.80;;;;;;5006601;28;20565;-85
2022/06/30 11:39:20;;;;;;;3.40;1.10;;;29.10;54.60;;;;;;4995743;28;20050;-83
2022/06/30 11:41:55;;;;;;;3.55;1.02;;;29.10;54.20;;;;;;4990431;28;20046;-84
2022/06/30 11:44:38;;;;;;;1.50;0.80;;;29.00;54.00;;;;;;4983308;28;20038;-83
2022/06/30 11:47:17;;;;;;;3.00;0.75;;;29.00;53.80;;;;;;4996580;28;20055;-95
2022/06/30 11:49:52;;;;;;;2.50;0.90;;;29.00;53.70;;;;;;4974594;28;20110;-95
2022/06/30 11:52:41;;;;;;;2.83;0.70;;;29.20;53.10;;;;;;4990331;28;20495;-94
2022/06/30 11:55:10;;;;;;;1.48;0.75;;;29.30;52.50;;;;;;4979646;28;20046;-95
2022/06/30 11:57:47;;;;;;;0.90;0.52;;;29.40;51.70;;;;;;4990590;28;20140;-92
2022/06/30 12:00:17;;;;;;;2.63;0.52;;;29.80;51.50;;;;;;4990105;28;20042;-92
2022/06/30 12:02:46;;;;;;;1.63;0.40;;;30.10;50.80;;;;;;4992471;28;20140;-84
2022/06/30 12:05:17;;;;;;;3.25;0.70;;;30.50;50.70;;;;;;4960031;28;20062;-84
2022/06/30 12:07:46;;;;;;;2.92;0.80;;;30.70;49.80;;;;;;4991751;28;20417;-83
2022/06/30 12:10:16;;;;;;;2.95;0.60;;;30.80;49.60;;;;;;4959367;28;20073;-84
2022/06/30 12:12:44;;;;;;;2.05;0.45;;;30.90;49.30;;;;;;4975511;28;20080;-83
2022/06/30 12:15:15;;;;;;;1.17;0.40;;;31.20;49.30;;;;;;4986008;28;20084;-86
2022/06/30 12:17:45;;;;;;;2.75;0.70;;;31.50;48.60;;;;;;4995573;28;20124;-86
2022/06/30 12:20:16;;;;;;;1.85;0.50;;;31.80;48.30;;;;;;4995827;28;20108;-85
2022/06/30 12:22:49;;;;;;;1.00;0.40;;;32.10;47.90;;;;;;4975702;28;20050;-85
2022/06/30 12:25:17;;;;;;;1.17;0.40;;;32.60;47.60;;;;;;4988988;28;20054;-79
2022/06/30 12:27:49;;;;;;;1.40;0.73;;;32.90;47.10;;;;;;4993401;28;20129;-81
2022/06/30 12:30:36;;;;;;;0.75;0.38;;;33.30;46.90;;;;;;4983758;28;20112;-81
2022/06/30 12:33:10;;;;;;;0.82;0.40;;;33.60;46.60;;;;;;4993229;28;20108;-87
2022/06/30 12:35:39;;;;;;;1.02;0.40;;;34.10;46.30;;;;;;4992245;28;20138;-81
2022/06/30 12:38:14;;;;;;;1.55;0.47;;;34.30;45.90;;;;;;4994123;28;20093;-81
2022/06/30 12:40:41;;;;;;;1.42;0.40;;;34.60;45.70;;;;;;4993237;28;20057;-86
2022/06/30 12:43:15;;;;;;;2.60;0.50;;;34.90;45.40;;;;;;4998594;28;20379;-84
2022/06/30 12:45:52;;;;;;;1.40;0.50;;;34.30;45.30;;;;;;4976140;28;20046;-84
2022/06/30 12:48:48;;;;;;;1.58;0.40;;;33.50;46.00;;;;;;5005182;28;20066;-83
2022/06/30 12:51:32;;;;;;;2.53;0.40;;;32.90;46.70;;;;;;5001406;28;20047;-83
2022/06/30 12:54:05;;;;;;;1.58;0.38;;;32.20;47.40;;;;;;4990339;28;20129;-83
2022/06/30 12:56:33;;;;;;;0.55;0.20;;;32.10;47.60;;;;;;4997143;28;20039;-83
2022/06/30 12:59:07;;;;;;;1.52;0.40;;;32.90;46.90;;;;;;4984780;28;20046;-82
2022/06/30 13:01:51;;;;;;;1.52;0.50;;;33.60;46.00;;;;;;4985699;28;20064;-79
2022/06/30 13:04:21;;;;;;;1.95;0.55;;;34.20;45.60;;;;;;4983213;28;20524;-79
2022/06/30 13:06:51;;;;;;;0.80;0.50;;;34.50;44.40;;;;;;5006712;28;20052;-78
2022/06/30 13:09:21;;;;;;;1.80;0.57;;;34.70;44.30;;;;;;4999977;28;20066;-79
2022/06/30 13:11:52;;;;;;;2.35;0.50;;;34.80;44.00;;;;;;5002057;28;20112;-79
2022/06/30 13:14:22;;;;;;;1.45;0.30;;;34.30;44.20;;;;;;4996309;28;20379;-78
2022/06/30 13:16:51;;;;;;;0.52;0.30;;;33.80;44.80;;;;;;4990839;28;20104;-78
2022/06/30 13:19:19;;;;;;;1.30;0.50;;;33.40;44.90;;;;;;4978610;28;20069;-87
2022/06/30 13:21:49;;;;;;;1.90;0.45;;;33.30;45.00;;;;;;5000722;28;20057;-87
2022/06/30 13:24:21;;;;;;;1.35;0.30;;;33.40;44.90;;;;;;4977722;28;20092;-86